sensor_id;sensor_type;location;lat;lon;timestamp;pressure;altitude;pressure_sealevel;temperature;humidity
71857;BME280;63344;46.980;28.882;2024-01-30T00:01:03;103345.81;;;0.08;77.51
71857;BME280;63344;46.980;28.882;2024-01-30T00:03:46;103350.00;;;0.05;77.71
71857;BME280;63344;46.980;28.882;2024-01-30T00:06:13;103353.28;;;0.01;77.94
71857;BME280;63344;46.980;28.882;2024-01-30T00:08:41;103337.16;;;-0.09;77.92
71857;BME280;63344;46.980;28.882;2024-01-30T00:11:08;103325.59;;;-0.14;78.29
71857;BME280;63344;46.980;28.882;2024-01-30T00:13:36;103336.25;;;-0.09;78.26
71857;BME280;63344;46.980;28.882;2024-01-30T00:16:03;103338.34;;;-0.02;78.14
71857;BME280;63344;46.980;28.882;2024-01-30T00:18:30;103335.97;;;0.03;78.26
71857;BME280;63344;46.980;28.882;2024-01-30T00:20:58;103334.44;;;0.08;78.27
71857;BME280;63344;46.980;28.882;2024-01-30T00:23:25;103336.38;;;0.12;78.12
71857;BME280;63344;46.980;28.882;2024-01-30T00:25:53;103333.94;;;0.15;78.10
71857;BME280;63344;46.980;28.882;2024-01-30T00:28:20;103331.31;;;0.15;77.96
71857;BME280;63344;46.980;28.882;2024-01-30T00:30:47;103326.22;;;0.18;78.13
71857;BME280;63344;46.980;28.882;2024-01-30T00:33:15;103327.22;;;0.20;78.00
71857;BME280;63344;46.980;28.882;2024-01-30T00:35:43;103314.59;;;0.11;78.12
71857;BME280;63344;46.980;28.882;2024-01-30T00:38:10;103321.09;;;0.19;78.28
71857;BME280;63344;46.980;28.882;2024-01-30T00:40:38;103321.31;;;0.24;78.06
71857;BME280;63344;46.980;28.882;2024-01-30T00:43:05;103319.38;;;0.20;78.24
71857;BME280;63344;46.980;28.882;2024-01-30T00:45:33;103328.84;;;0.18;77.96
71857;BME280;63344;46.980;28.882;2024-01-30T00:48:00;103294.69;;;-0.05;77.85
71857;BME280;63344;46.980;28.882;2024-01-30T00:50:28;103321.63;;;0.12;78.33
71857;BME280;63344;46.980;28.882;2024-01-30T00:52:57;103315.44;;;0.10;78.22
71857;BME280;63344;46.980;28.882;2024-01-30T00:55:24;103312.00;;;0.11;78.08
71857;BME280;63344;46.980;28.882;2024-01-30T00:57:51;103313.78;;;0.12;78.22
71857;BME280;63344;46.980;28.882;2024-01-30T01:00:19;103313.56;;;0.08;78.17
71857;BME280;63344;46.980;28.882;2024-01-30T01:02:47;103332.22;;;0.15;78.24
71857;BME280;63344;46.980;28.882;2024-01-30T01:05:15;103326.88;;;0.12;78.32
71857;BME280;63344;46.980;28.882;2024-01-30T01:07:42;103320.66;;;0.10;78.53
71857;BME280;63344;46.980;28.882;2024-01-30T01:10:10;103317.97;;;0.09;78.21
71857;BME280;63344;46.980;28.882;2024-01-30T01:12:38;103301.75;;;-0.02;78.33
71857;BME280;63344;46.980;28.882;2024-01-30T01:15:06;103311.63;;;0.04;78.32
71857;BME280;63344;46.980;28.882;2024-01-30T01:17:37;103312.38;;;0.01;78.40
71857;BME280;63344;46.980;28.882;2024-01-30T01:20:05;103317.81;;;0.06;78.46
71857;BME280;63344;46.980;28.882;2024-01-30T01:22:33;103324.91;;;0.08;78.48
71857;BME280;63344;46.980;28.882;2024-01-30T01:25:01;103311.69;;;0.05;78.38
71857;BME280;63344;46.980;28.882;2024-01-30T01:27:29;103313.56;;;0.08;78.52
71857;BME280;63344;46.980;28.882;2024-01-30T01:29:56;103308.94;;;0.02;78.25
71857;BME280;63344;46.980;28.882;2024-01-30T01:32:23;103301.84;;;-0.01;78.27
71857;BME280;63344;46.980;28.882;2024-01-30T01:34:51;103321.38;;;0.08;78.38
71857;BME280;63344;46.980;28.882;2024-01-30T01:37:19;103313.41;;;0.05;78.15
71857;BME280;63344;46.980;28.882;2024-01-30T01:39:49;103316.91;;;0.05;78.21
71857;BME280;63344;46.980;28.882;2024-01-30T01:42:17;103318.66;;;0.05;78.28
71857;BME280;63344;46.980;28.882;2024-01-30T01:44:44;103320.38;;;0.04;78.15
71857;BME280;63344;46.980;28.882;2024-01-30T01:47:11;103310.28;;;-0.06;77.46
71857;BME280;63344;46.980;28.882;2024-01-30T01:49:39;103317.09;;;-0.10;77.88
71857;BME280;63344;46.980;28.882;2024-01-30T01:52:06;103318.88;;;-0.09;78.06
71857;BME280;63344;46.980;28.882;2024-01-30T01:54:34;103315.56;;;-0.05;77.92
71857;BME280;63344;46.980;28.882;2024-01-30T01:57:01;103315.66;;;-0.03;77.86
71857;BME280;63344;46.980;28.882;2024-01-30T01:59:29;103315.50;;;-0.06;77.94
71857;BME280;63344;46.980;28.882;2024-01-30T02:01:56;103297.00;;;-0.11;77.40
71857;BME280;63344;46.980;28.882;2024-01-30T02:04:27;103307.91;;;-0.02;77.33
71857;BME280;63344;46.980;28.882;2024-01-30T02:06:54;103302.69;;;-0.02;77.33
71857;BME280;63344;46.980;28.882;2024-01-30T02:09:22;103320.88;;;0.15;77.30
71857;BME280;63344;46.980;28.882;2024-01-30T02:11:49;103305.88;;;0.11;77.16
71857;BME280;63344;46.980;28.882;2024-01-30T02:14:17;103313.78;;;0.12;76.76
71857;BME280;63344;46.980;28.882;2024-01-30T02:16:44;103296.09;;;0.07;77.55
71857;BME280;63344;46.980;28.882;2024-01-30T02:19:11;103312.16;;;0.14;77.21
71857;BME280;63344;46.980;28.882;2024-01-30T02:21:39;103293.19;;;0.01;76.90
71857;BME280;63344;46.980;28.882;2024-01-30T02:24:06;103315.44;;;0.10;77.11
71857;BME280;63344;46.980;28.882;2024-01-30T02:26:33;103308.41;;;0.09;77.20
71857;BME280;63344;46.980;28.882;2024-01-30T02:29:01;103320.97;;;0.16;77.11
71857;BME280;63344;46.980;28.882;2024-01-30T02:31:28;103317.59;;;0.19;76.91
71857;BME280;63344;46.980;28.882;2024-01-30T02:33:56;103311.59;;;0.22;76.95
71857;BME280;63344;46.980;28.882;2024-01-30T02:36:23;103311.59;;;0.22;77.01
71857;BME280;63344;46.980;28.882;2024-01-30T02:38:51;103294.75;;;0.15;76.86
71857;BME280;63344;46.980;28.882;2024-01-30T02:41:18;103314.28;;;0.23;76.78
71857;BME280;63344;46.980;28.882;2024-01-30T02:43:45;103314.22;;;0.22;76.89
71857;BME280;63344;46.980;28.882;2024-01-30T02:46:13;103308.94;;;0.20;76.82
71857;BME280;63344;46.980;28.882;2024-01-30T02:48:41;103296.09;;;0.07;76.72
71857;BME280;63344;46.980;28.882;2024-01-30T02:51:08;103304.38;;;-0.02;76.09
71857;BME280;63344;46.980;28.882;2024-01-30T02:53:36;103307.44;;;-0.11;76.66
71857;BME280;63344;46.980;28.882;2024-01-30T02:56:03;103304.53;;;-0.17;77.06
71857;BME280;63344;46.980;28.882;2024-01-30T02:58:31;103306.84;;;-0.23;77.46
71857;BME280;63344;46.980;28.882;2024-01-30T03:00:58;103287.69;;;-0.42;77.54
71857;BME280;63344;46.980;28.882;2024-01-30T03:03:27;103309.53;;;-0.39;77.75
71857;BME280;63344;46.980;28.882;2024-01-30T03:05:54;103302.56;;;-0.57;77.96
71857;BME280;63344;46.980;28.882;2024-01-30T03:08:22;103295.59;;;-0.74;78.44
71857;BME280;63344;46.980;28.882;2024-01-30T03:10:49;103301.66;;;-0.92;79.14
71857;BME280;63344;46.980;28.882;2024-01-30T03:13:17;103300.13;;;-1.05;79.67
71857;BME280;63344;46.980;28.882;2024-01-30T03:15:44;103301.44;;;-1.13;79.75
71857;BME280;63344;46.980;28.882;2024-01-30T03:18:12;103296.78;;;-1.18;79.98
71857;BME280;63344;46.980;28.882;2024-01-30T03:20:41;103278.88;;;-1.29;80.24
71857;BME280;63344;46.980;28.882;2024-01-30T03:23:08;103313.81;;;-1.09;80.31
71857;BME280;63344;46.980;28.882;2024-01-30T03:25:35;103314.56;;;-1.11;80.59
71857;BME280;63344;46.980;28.882;2024-01-30T03:28:04;103306.72;;;-1.11;80.15
71857;BME280;63344;46.980;28.882;2024-01-30T03:30:32;103305.00;;;-1.11;80.07
71857;BME280;63344;46.980;28.882;2024-01-30T03:33:00;103302.22;;;-1.14;80.07
71857;BME280;63344;46.980;28.882;2024-01-30T03:35:27;103306.66;;;-1.13;79.82
71857;BME280;63344;46.980;28.882;2024-01-30T03:37:55;103299.38;;;-1.18;79.82
71857;BME280;63344;46.980;28.882;2024-01-30T03:40:22;103304.69;;;-1.17;79.98
71857;BME280;63344;46.980;28.882;2024-01-30T03:42:49;103307.94;;;-1.21;79.91
71857;BME280;63344;46.980;28.882;2024-01-30T03:45:17;103297.13;;;-1.29;80.02
71857;BME280;63344;46.980;28.882;2024-01-30T03:47:47;103306.38;;;-1.34;80.56
71857;BME280;63344;46.980;28.882;2024-01-30T03:50:14;103297.84;;;-1.31;80.33
71857;BME280;63344;46.980;28.882;2024-01-30T03:52:46;103299.47;;;-1.33;80.61
71857;BME280;63344;46.980;28.882;2024-01-30T03:55:14;103303.78;;;-1.34;80.53
71857;BME280;63344;46.980;28.882;2024-01-30T03:57:43;103302.56;;;-1.41;80.21
71857;BME280;63344;46.980;28.882;2024-01-30T04:00:11;103303.06;;;-1.48;80.48
71857;BME280;63344;46.980;28.882;2024-01-30T04:02:39;103301.91;;;-1.53;80.80
71857;BME280;63344;46.980;28.882;2024-01-30T04:05:07;103290.97;;;-1.62;80.66
71857;BME280;63344;46.980;28.882;2024-01-30T04:07:35;103294.78;;;-1.72;81.21
71857;BME280;63344;46.980;28.882;2024-01-30T04:10:04;103300.28;;;-1.82;81.41
71857;BME280;63344;46.980;28.882;2024-01-30T04:12:33;103299.16;;;-1.87;81.44
71857;BME280;63344;46.980;28.882;2024-01-30T04:15:00;103299.63;;;-1.94;81.32
71857;BME280;63344;46.980;28.882;2024-01-30T04:17:28;103284.53;;;-2.00;81.76
71857;BME280;63344;46.980;28.882;2024-01-30T04:19:56;103285.28;;;-2.03;81.64
71857;BME280;63344;46.980;28.882;2024-01-30T04:22:24;103285.03;;;-2.07;81.88
71857;BME280;63344;46.980;28.882;2024-01-30T04:24:51;103286.56;;;-2.11;82.09
71857;BME280;63344;46.980;28.882;2024-01-30T04:27:20;103292.75;;;-2.09;82.25
71857;BME280;63344;46.980;28.882;2024-01-30T04:29:48;103286.13;;;-2.18;82.31
71857;BME280;63344;46.980;28.882;2024-01-30T04:32:16;103272.75;;;-2.25;82.78
71857;BME280;63344;46.980;28.882;2024-01-30T04:34:44;103288.81;;;-2.17;82.73
71857;BME280;63344;46.980;28.882;2024-01-30T04:37:13;103299.31;;;-2.15;82.52
71857;BME280;63344;46.980;28.882;2024-01-30T04:39:40;103294.66;;;-2.21;82.71
71857;BME280;63344;46.980;28.882;2024-01-30T04:42:08;103289.25;;;-2.24;83.32
71857;BME280;63344;46.980;28.882;2024-01-30T04:44:37;103297.81;;;-2.27;83.46
71857;BME280;63344;46.980;28.882;2024-01-30T04:47:04;103289.66;;;-2.33;83.29
71857;BME280;63344;46.980;28.882;2024-01-30T04:49:33;103305.25;;;-2.33;83.63
71857;BME280;63344;46.980;28.882;2024-01-30T04:52:01;103298.09;;;-2.37;83.48
71857;BME280;63344;46.980;28.882;2024-01-30T04:54:29;103291.66;;;-2.44;83.25
71857;BME280;63344;46.980;28.882;2024-01-30T04:56:57;103293.22;;;-2.46;83.56
71857;BME280;63344;46.980;28.882;2024-01-30T04:59:24;103308.16;;;-2.43;83.72
71857;BME280;63344;46.980;28.882;2024-01-30T05:01:56;103296.09;;;-2.56;83.80
71857;BME280;63344;46.980;28.882;2024-01-30T05:04:41;103306.50;;;-2.56;84.07
71857;BME280;63344;46.980;28.882;2024-01-30T05:07:12;103297.09;;;-2.69;84.45
71857;BME280;63344;46.980;28.882;2024-01-30T05:09:57;103289.28;;;-2.84;84.85
71857;BME280;63344;46.980;28.882;2024-01-30T05:12:48;103314.84;;;-2.76;85.14
71857;BME280;63344;46.980;28.882;2024-01-30T05:15:52;103312.09;;;-2.79;85.13
71857;BME280;63344;46.980;28.882;2024-01-30T05:18:24;103309.19;;;-2.84;85.12
71857;BME280;63344;46.980;28.882;2024-01-30T05:21:18;103321.03;;;-2.89;85.07
71857;BME280;63344;46.980;28.882;2024-01-30T05:23:50;103299.31;;;-3.05;85.33
71857;BME280;63344;46.980;28.882;2024-01-30T05:26:45;103326.56;;;-2.98;85.67
71857;BME280;63344;46.980;28.882;2024-01-30T05:29:27;103323.97;;;-2.98;86.18
71857;BME280;63344;46.980;28.882;2024-01-30T05:32:16;103328.38;;;-2.97;85.84
71857;BME280;63344;46.980;28.882;2024-01-30T05:35:26;103333.38;;;-3.00;86.26
71857;BME280;63344;46.980;28.882;2024-01-30T05:38:09;103337.47;;;-3.04;86.02
71857;BME280;63344;46.980;28.882;2024-01-30T05:40:58;103325.03;;;-3.09;86.36
71857;BME280;63344;46.980;28.882;2024-01-30T05:43:26;103329.50;;;-3.07;86.16
71857;BME280;63344;46.980;28.882;2024-01-30T05:45:54;103325.81;;;-3.10;86.00
71857;BME280;63344;46.980;28.882;2024-01-30T05:48:24;103342.50;;;-3.07;85.95
71857;BME280;63344;46.980;28.882;2024-01-30T05:50:53;103334.72;;;-3.07;86.03
71857;BME280;63344;46.980;28.882;2024-01-30T05:53:21;103338.03;;;-3.09;86.42
71857;BME280;63344;46.980;28.882;2024-01-30T05:55:48;103330.03;;;-3.12;86.23
71857;BME280;63344;46.980;28.882;2024-01-30T05:58:16;103331.72;;;-3.13;86.13
71857;BME280;63344;46.980;28.882;2024-01-30T06:00:44;103334.22;;;-3.14;86.02
71857;BME280;63344;46.980;28.882;2024-01-30T06:03:12;103332.63;;;-3.12;86.09
71857;BME280;63344;46.980;28.882;2024-01-30T06:05:40;103320.66;;;-3.24;85.71
71857;BME280;63344;46.980;28.882;2024-01-30T06:08:08;103328.94;;;-3.16;86.05
71857;BME280;63344;46.980;28.882;2024-01-30T06:10:38;103331.53;;;-3.16;86.10
71857;BME280;63344;46.980;28.882;2024-01-30T06:13:06;103323.56;;;-3.19;86.47
71857;BME280;63344;46.980;28.882;2024-01-30T06:15:33;103315.41;;;-3.25;86.18
71857;BME280;63344;46.980;28.882;2024-01-30T06:18:02;103342.13;;;-3.13;86.31
71857;BME280;63344;46.980;28.882;2024-01-30T06:20:30;103329.31;;;-3.10;86.15
71857;BME280;63344;46.980;28.882;2024-01-30T06:22:58;103327.81;;;-3.06;86.15
71857;BME280;63344;46.980;28.882;2024-01-30T06:25:26;103339.84;;;-2.93;86.17
71857;BME280;63344;46.980;28.882;2024-01-30T06:27:54;103317.16;;;-2.96;86.20
71857;BME280;63344;46.980;28.882;2024-01-30T06:30:21;103325.25;;;-2.91;86.23
71857;BME280;63344;46.980;28.882;2024-01-30T06:32:49;103332.13;;;-2.92;86.03
71857;BME280;63344;46.980;28.882;2024-01-30T06:35:16;103330.34;;;-2.93;86.07
71857;BME280;63344;46.980;28.882;2024-01-30T06:37:45;103324.94;;;-2.96;86.04
71857;BME280;63344;46.980;28.882;2024-01-30T06:40:12;103336.28;;;-2.81;86.04
71857;BME280;63344;46.980;28.882;2024-01-30T06:42:41;103328.75;;;-2.76;86.03
71857;BME280;63344;46.980;28.882;2024-01-30T06:45:09;103319.25;;;-2.75;85.69
71857;BME280;63344;46.980;28.882;2024-01-30T06:47:37;103313.84;;;-2.64;86.08
71857;BME280;63344;46.980;28.882;2024-01-30T06:50:04;103322.22;;;-2.54;85.87
71857;BME280;63344;46.980;28.882;2024-01-30T06:52:33;103328.50;;;-2.51;85.50
71857;BME280;63344;46.980;28.882;2024-01-30T06:55:02;103335.94;;;-2.42;85.21
71857;BME280;63344;46.980;28.882;2024-01-30T06:57:30;103341.59;;;-2.34;84.79
71857;BME280;63344;46.980;28.882;2024-01-30T06:59:58;103330.41;;;-2.33;84.50
71857;BME280;63344;46.980;28.882;2024-01-30T07:02:26;103318.81;;;-2.38;84.38
71857;BME280;63344;46.980;28.882;2024-01-30T07:04:57;103332.88;;;-2.20;84.21
71857;BME280;63344;46.980;28.882;2024-01-30T07:07:25;103325.59;;;-2.11;84.17
71857;BME280;63344;46.980;28.882;2024-01-30T07:09:54;103317.94;;;-2.08;84.14
71857;BME280;63344;46.980;28.882;2024-01-30T07:12:24;103320.44;;;-1.94;83.71
71857;BME280;63344;46.980;28.882;2024-01-30T07:14:53;103286.09;;;-2.04;83.65
71857;BME280;63344;46.980;28.882;2024-01-30T07:17:24;103314.25;;;-1.82;83.35
71857;BME280;63344;46.980;28.882;2024-01-30T07:19:51;103299.59;;;-1.79;83.08
71857;BME280;63344;46.980;28.882;2024-01-30T07:22:20;103304.94;;;-1.76;82.76
71857;BME280;63344;46.980;28.882;2024-01-30T07:24:47;103279.31;;;-1.85;82.36
71857;BME280;63344;46.980;28.882;2024-01-30T07:27:17;103283.31;;;-1.75;82.63
71857;BME280;63344;46.980;28.882;2024-01-30T07:29:45;103307.66;;;-1.58;82.70
71857;BME280;63344;46.980;28.882;2024-01-30T07:32:14;103266.53;;;-1.81;82.48
71857;BME280;63344;46.980;28.882;2024-01-30T07:34:44;103304.75;;;-1.48;82.07
71857;BME280;63344;46.980;28.882;2024-01-30T07:37:29;103298.75;;;-1.47;81.50
71857;BME280;63344;46.980;28.882;2024-01-30T07:39:57;103276.72;;;-1.52;81.64
71857;BME280;63344;46.980;28.882;2024-01-30T07:42:25;103292.72;;;-1.30;81.79
71857;BME280;63344;46.980;28.882;2024-01-30T07:44:55;103303.94;;;-1.14;81.38
71857;BME280;63344;46.980;28.882;2024-01-30T07:47:23;103285.59;;;-1.16;80.93
71857;BME280;63344;46.980;28.882;2024-01-30T07:49:52;103290.25;;;-1.10;81.13
71857;BME280;63344;46.980;28.882;2024-01-30T07:52:20;103297.91;;;-0.97;80.92
71857;BME280;63344;46.980;28.882;2024-01-30T07:54:48;103267.75;;;-1.08;80.89
71857;BME280;63344;46.980;28.882;2024-01-30T07:57:15;103291.59;;;-0.84;81.13
71857;BME280;63344;46.980;28.882;2024-01-30T07:59:44;103295.75;;;-0.71;80.92
71857;BME280;63344;46.980;28.882;2024-01-30T08:02:14;103270.25;;;-0.77;80.36
71857;BME280;63344;46.980;28.882;2024-01-30T08:04:41;103270.94;;;-0.63;80.12
71857;BME280;63344;46.980;28.882;2024-01-30T08:07:09;103265.22;;;-0.56;80.08
71857;BME280;63344;46.980;28.882;2024-01-30T08:09:37;103264.19;;;-0.42;79.86
71857;BME280;63344;46.980;28.882;2024-01-30T08:12:06;103280.88;;;-0.20;79.85
71857;BME280;63344;46.980;28.882;2024-01-30T08:14:35;103249.69;;;-0.35;79.08
71857;BME280;63344;46.980;28.882;2024-01-30T08:17:03;103267.00;;;-0.19;79.04
71857;BME280;63344;46.980;28.882;2024-01-30T08:19:32;103271.94;;;-0.07;78.88
71857;BME280;63344;46.980;28.882;2024-01-30T08:22:01;103260.88;;;-0.02;78.95
71857;BME280;63344;46.980;28.882;2024-01-30T08:24:29;103228.34;;;-0.08;79.00
71857;BME280;63344;46.980;28.882;2024-01-30T08:26:57;103252.78;;;0.12;78.88
71857;BME280;63344;46.980;28.882;2024-01-30T08:29:25;103251.50;;;0.22;78.68
71857;BME280;63344;46.980;28.882;2024-01-30T08:31:53;103246.63;;;0.29;78.35
71857;BME280;63344;46.980;28.882;2024-01-30T08:34:22;103253.44;;;0.45;78.71
71857;BME280;63344;46.980;28.882;2024-01-30T08:36:50;103238.66;;;0.46;78.54
71857;BME280;63344;46.980;28.882;2024-01-30T08:39:18;103247.88;;;0.57;78.62
71857;BME280;63344;46.980;28.882;2024-01-30T08:41:46;103259.03;;;0.72;78.56
71857;BME280;63344;46.980;28.882;2024-01-30T08:44:14;103255.66;;;0.75;78.68
71857;BME280;63344;46.980;28.882;2024-01-30T08:46:43;103223.94;;;0.67;78.49
71857;BME280;63344;46.980;28.882;2024-01-30T08:49:16;103240.03;;;0.76;77.83
71857;BME280;63344;46.980;28.882;2024-01-30T08:51:44;103257.22;;;0.91;77.86
71857;BME280;63344;46.980;28.882;2024-01-30T08:54:12;103247.78;;;0.94;77.83
71857;BME280;63344;46.980;28.882;2024-01-30T08:56:40;103240.84;;;0.95;77.71
71857;BME280;63344;46.980;28.882;2024-01-30T08:59:07;103235.88;;;1.01;77.53
71857;BME280;63344;46.980;28.882;2024-01-30T09:01:38;103232.63;;;1.07;77.68
71857;BME280;63344;46.980;28.882;2024-01-30T09:04:09;103231.28;;;1.16;77.38
71857;BME280;63344;46.980;28.882;2024-01-30T09:06:36;103230.66;;;1.22;76.80
71857;BME280;63344;46.980;28.882;2024-01-30T09:09:06;103210.22;;;1.13;75.62
71857;BME280;63344;46.980;28.882;2024-01-30T09:11:35;103229.09;;;1.27;75.41
71857;BME280;63344;46.980;28.882;2024-01-30T09:14:03;103185.94;;;1.17;75.61
71857;BME280;63344;46.980;28.882;2024-01-30T09:16:34;103203.50;;;1.41;75.77
71857;BME280;63344;46.980;28.882;2024-01-30T09:19:01;103210.16;;;1.54;75.46
71857;BME280;63344;46.980;28.882;2024-01-30T09:21:29;103216.19;;;1.74;74.85
71857;BME280;63344;46.980;28.882;2024-01-30T09:24:02;103216.44;;;1.80;74.07
71857;BME280;63344;46.980;28.882;2024-01-30T09:26:33;103202.72;;;1.87;74.46
71857;BME280;63344;46.980;28.882;2024-01-30T09:29:01;103202.66;;;2.08;74.22
71857;BME280;63344;46.980;28.882;2024-01-30T09:31:29;103205.69;;;2.19;73.27
71857;BME280;63344;46.980;28.882;2024-01-30T09:33:58;103166.47;;;1.98;72.42
71857;BME280;63344;46.980;28.882;2024-01-30T09:36:28;103206.47;;;2.16;72.23
71857;BME280;63344;46.980;28.882;2024-01-30T09:38:56;103194.00;;;2.11;72.06
71857;BME280;63344;46.980;28.882;2024-01-30T09:41:27;103205.69;;;2.19;72.20
71857;BME280;63344;46.980;28.882;2024-01-30T09:43:56;103186.00;;;2.30;72.21
71857;BME280;63344;46.980;28.882;2024-01-30T09:46:27;103153.41;;;4.43;69.43
71857;BME280;63344;46.980;28.882;2024-01-30T09:48:55;103187.78;;;7.24;61.29
71857;BME280;63344;46.980;28.882;2024-01-30T09:51:26;103172.34;;;8.93;54.84
71857;BME280;63344;46.980;28.882;2024-01-30T09:53:54;103181.97;;;10.08;50.81
71857;BME280;63344;46.980;28.882;2024-01-30T09:56:22;103172.50;;;11.02;48.35
71857;BME280;63344;46.980;28.882;2024-01-30T09:58:52;103164.38;;;12.13;45.35
71857;BME280;63344;46.980;28.882;2024-01-30T10:01:20;103168.34;;;12.88;43.14
71857;BME280;63344;46.980;28.882;2024-01-30T10:03:50;103152.66;;;13.58;40.96
71857;BME280;63344;46.980;28.882;2024-01-30T10:06:21;103165.97;;;14.35;39.56
71857;BME280;63344;46.980;28.882;2024-01-30T10:08:51;103164.25;;;14.31;38.75
71857;BME280;63344;46.980;28.882;2024-01-30T10:11:19;103154.69;;;14.11;39.13
71857;BME280;63344;46.980;28.882;2024-01-30T10:13:46;103155.13;;;13.76;38.30
71857;BME280;63344;46.980;28.882;2024-01-30T10:16:14;103141.16;;;13.48;39.04
71857;BME280;63344;46.980;28.882;2024-01-30T10:18:43;103137.84;;;14.06;39.29
71857;BME280;63344;46.980;28.882;2024-01-30T10:21:12;103142.09;;;14.85;37.51
71857;BME280;63344;46.980;28.882;2024-01-30T10:23:39;103146.31;;;15.49;37.66
71857;BME280;63344;46.980;28.882;2024-01-30T10:26:07;103138.44;;;15.88;35.70
71857;BME280;63344;46.980;28.882;2024-01-30T10:28:35;103140.50;;;15.76;35.94
71857;BME280;63344;46.980;28.882;2024-01-30T10:31:03;103144.31;;;15.12;35.32
71857;BME280;63344;46.980;28.882;2024-01-30T10:33:33;103133.16;;;15.36;35.45
71857;BME280;63344;46.980;28.882;2024-01-30T10:36:04;103122.88;;;15.61;35.81
71857;BME280;63344;46.980;28.882;2024-01-30T10:38:34;103100.94;;;15.42;35.66
71857;BME280;63344;46.980;28.882;2024-01-30T10:41:03;103094.66;;;14.94;36.17
71857;BME280;63344;46.980;28.882;2024-01-30T10:43:41;103102.25;;;14.03;36.88
71857;BME280;63344;46.980;28.882;2024-01-30T10:46:19;103120.88;;;13.33;37.38
71857;BME280;63344;46.980;28.882;2024-01-30T10:48:51;103128.28;;;13.00;38.82
71857;BME280;63344;46.980;28.882;2024-01-30T10:51:24;103113.78;;;13.32;37.05
71857;BME280;63344;46.980;28.882;2024-01-30T10:53:55;103110.38;;;13.11;37.70
71857;BME280;63344;46.980;28.882;2024-01-30T10:56:25;103104.38;;;12.83;38.16
71857;BME280;63344;46.980;28.882;2024-01-30T10:58:53;103111.88;;;12.27;38.69
71857;BME280;63344;46.980;28.882;2024-01-30T11:01:25;103108.44;;;12.05;39.48
71857;BME280;63344;46.980;28.882;2024-01-30T11:03:54;103100.97;;;12.66;38.87
71857;BME280;63344;46.980;28.882;2024-01-30T11:06:24;103064.44;;;12.80;38.61
71857;BME280;63344;46.980;28.882;2024-01-30T11:09:03;103101.78;;;12.77;38.08
71857;BME280;63344;46.980;28.882;2024-01-30T11:11:58;103058.50;;;12.43;38.79
71857;BME280;63344;46.980;28.882;2024-01-30T11:14:30;103086.59;;;12.84;39.01
71857;BME280;63344;46.980;28.882;2024-01-30T11:16:58;103084.72;;;12.97;37.77
71857;BME280;63344;46.980;28.882;2024-01-30T11:19:31;103067.88;;;12.91;38.75
71857;BME280;63344;46.980;28.882;2024-01-30T11:21:59;103070.00;;;13.47;37.60
71857;BME280;63344;46.980;28.882;2024-01-30T11:24:27;103057.25;;;12.87;37.24
71857;BME280;63344;46.980;28.882;2024-01-30T11:26:59;103044.00;;;10.94;39.37
71857;BME280;63344;46.980;28.882;2024-01-30T11:29:28;103068.81;;;10.47;41.47
71857;BME280;63344;46.980;28.882;2024-01-30T11:31:58;103052.88;;;10.71;41.51
71857;BME280;63344;46.980;28.882;2024-01-30T11:34:29;103058.16;;;10.38;41.65
71857;BME280;63344;46.980;28.882;2024-01-30T11:37:03;103059.97;;;10.82;42.01
71857;BME280;63344;46.980;28.882;2024-01-30T11:39:31;103056.44;;;12.77;40.04
71857;BME280;63344;46.980;28.882;2024-01-30T11:41:59;103040.81;;;14.01;37.09
71857;BME280;63344;46.980;28.882;2024-01-30T11:44:28;103031.00;;;14.62;36.26
71857;BME280;63344;46.980;28.882;2024-01-30T11:46:57;103045.16;;;14.67;35.24
71857;BME280;63344;46.980;28.882;2024-01-30T11:49:26;103036.72;;;14.92;35.22
71857;BME280;63344;46.980;28.882;2024-01-30T11:51:54;103032.38;;;13.65;35.27
71857;BME280;63344;46.980;28.882;2024-01-30T11:54:23;103027.91;;;12.85;37.36
71857;BME280;63344;46.980;28.882;2024-01-30T11:56:51;103016.78;;;12.34;37.77
71857;BME280;63344;46.980;28.882;2024-01-30T11:59:20;103046.69;;;12.74;37.84
71857;BME280;63344;46.980;28.882;2024-01-30T12:01:48;103049.59;;;13.43;37.27
71857;BME280;63344;46.980;28.882;2024-01-30T12:04:16;103021.06;;;13.46;37.30
71857;BME280;63344;46.980;28.882;2024-01-30T12:06:45;103028.84;;;13.65;37.51
71857;BME280;63344;46.980;28.882;2024-01-30T12:09:13;103019.22;;;12.62;37.72
71857;BME280;63344;46.980;28.882;2024-01-30T12:11:48;103012.94;;;11.19;39.66
71857;BME280;63344;46.980;28.882;2024-01-30T12:14:19;103025.28;;;10.00;41.28
71857;BME280;63344;46.980;28.882;2024-01-30T12:16:48;103015.59;;;10.28;43.01
71857;BME280;63344;46.980;28.882;2024-01-30T12:19:25;103024.28;;;11.67;40.24
71857;BME280;63344;46.980;28.882;2024-01-30T12:21:56;103017.09;;;11.89;39.37
71857;BME280;63344;46.980;28.882;2024-01-30T12:24:27;103015.44;;;11.57;39.58
71857;BME280;63344;46.980;28.882;2024-01-30T12:27:00;103005.91;;;10.78;40.15
71857;BME280;63344;46.980;28.882;2024-01-30T12:29:32;103013.00;;;10.59;41.10
71857;BME280;63344;46.980;28.882;2024-01-30T12:32:05;103005.88;;;10.95;40.74
71857;BME280;63344;46.980;28.882;2024-01-30T12:34:33;103011.78;;;11.86;40.28
71857;BME280;63344;46.980;28.882;2024-01-30T12:37:16;103003.50;;;12.28;38.77
71857;BME280;63344;46.980;28.882;2024-01-30T12:39:54;103007.50;;;12.83;38.72
71857;BME280;63344;46.980;28.882;2024-01-30T12:42:21;102994.03;;;12.98;37.01
71857;BME280;63344;46.980;28.882;2024-01-30T12:44:51;102986.44;;;12.52;37.89
71857;BME280;63344;46.980;28.882;2024-01-30T12:47:21;102973.81;;;11.40;38.03
71857;BME280;63344;46.980;28.882;2024-01-30T12:49:49;102974.03;;;10.53;38.85
71857;BME280;63344;46.980;28.882;2024-01-30T12:52:21;102986.38;;;10.05;40.15
71857;BME280;63344;46.980;28.882;2024-01-30T12:54:51;102980.25;;;10.39;39.81